Time;durP1;ratioP1;P1;durP2;ratioP2;P2;SDS_P1;SDS_P2;PMS_P1;PMS_P2;Temp;Humidity;BMP_temperature;BMP_pressure;BME280_temperature;BME280_humidity;BME280_pressure;Samples;Min_cycle;Max_cycle;Signal;HPM_P1;HPM_P2
2023/08/31 00:00:17;;;;;;;6.95;5.53;;;14.30;99.90;;;;;;5011267;28;20186;-96
2023/08/31 00:02:47;;;;;;;6.53;5.47;;;14.30;99.90;;;;;;5012137;28;20177;-96
2023/08/31 00:05:14;;;;;;;6.03;5.30;;;14.20;99.90;;;;;;5011101;28;20198;-96
2023/08/31 00:07:41;;;;;;;5.63;4.75;;;14.30;99.90;;;;;;5009998;28;20686;-96
2023/08/31 00:10:11;;;;;;;7.90;5.50;;;14.20;99.90;;;;;;5009536;28;20235;-96
2023/08/31 00:12:43;;;;;;;8.30;5.75;;;14.20;99.90;;;;;;5010177;28;20179;-96
2023/08/31 00:15:15;;;;;;;6.72;5.18;;;14.20;99.90;;;;;;5008023;28;20186;-96
2023/08/31 00:17:43;;;;;;;5.80;5.20;;;14.20;99.90;;;;;;5010191;28;20265;-96
2023/08/31 00:20:11;;;;;;;5.70;4.68;;;14.20;99.90;;;;;;5008436;28;20172;-96
2023/08/31 00:22:41;;;;;;;6.65;5.78;;;14.10;99.90;;;;;;5008684;28;20194;-96
2023/08/31 00:25:08;;;;;;;7.25;5.90;;;14.20;99.90;;;;;;5009104;28;20172;-96
2023/08/31 00:27:40;;;;;;;10.80;6.35;;;14.20;99.90;;;;;;5010913;28;20192;-96
2023/08/31 00:30:08;;;;;;;7.63;6.28;;;14.10;99.90;;;;;;5009997;28;20271;-96
2023/08/31 00:32:39;;;;;;;6.75;5.80;;;14.20;99.90;;;;;;5007949;28;20178;-96
2023/08/31 00:35:10;;;;;;;6.85;6.25;;;14.10;99.90;;;;;;5009694;28;20221;-96
2023/08/31 00:37:36;;;;;;;7.07;6.30;;;14.10;99.90;;;;;;5008937;28;20195;-96
2023/08/31 00:40:04;;;;;;;8.18;6.18;;;14.10;99.90;;;;;;5007106;28;20182;-96
2023/08/31 00:42:32;;;;;;;7.30;6.57;;;14.10;99.90;;;;;;5008840;28;20251;-96
2023/08/31 00:44:59;;;;;;;11.45;6.40;;;14.10;99.90;;;;;;5009177;28;20227;-96
2023/08/31 00:47:26;;;;;;;7.55;6.30;;;14.00;99.90;;;;;;5007736;28;20191;-96
2023/08/31 00:49:56;;;;;;;10.52;6.30;;;14.00;99.90;;;;;;5007630;28;20167;-96
2023/08/31 00:52:22;;;;;;;11.35;6.45;;;14.00;99.90;;;;;;5008331;28;20175;-96
2023/08/31 00:54:52;;;;;;;7.57;6.60;;;14.00;99.90;;;;;;5007595;28;20191;-96
2023/08/31 00:57:20;;;;;;;11.82;6.80;;;13.90;99.90;;;;;;5007604;28;20203;-96
2023/08/31 00:59:47;;;;;;;8.05;6.85;;;13.90;99.90;;;;;;5028645;28;20225;-96
2023/08/31 01:02:31;;;;;;;10.18;6.75;;;13.90;99.90;;;;;;5026787;28;20199;-96
2023/08/31 01:05:11;;;;;;;11.13;7.68;;;13.90;99.90;;;;;;5027839;28;20289;-96
2023/08/31 01:07:52;;;;;;;9.52;7.50;;;13.90;99.90;;;;;;5027772;28;20202;-96
2023/08/31 01:10:32;;;;;;;8.88;7.40;;;13.80;99.90;;;;;;5027464;28;20196;-96
2023/08/31 01:13:21;;;;;;;9.80;7.43;;;13.80;99.90;;;;;;5027985;28;20253;-96
2023/08/31 01:16:00;;;;;;;9.95;6.82;;;13.80;99.90;;;;;;5027696;28;20171;-96
2023/08/31 01:18:40;;;;;;;8.57;7.30;;;13.80;99.90;;;;;;5026122;28;20524;-96
2023/08/31 01:21:35;;;;;;;7.28;6.38;;;13.80;99.90;;;;;;5025962;28;20185;-96
2023/08/31 01:24:03;;;;;;;9.38;7.50;;;13.80;99.90;;;;;;5026074;28;20226;-96
2023/08/31 01:26:36;;;;;;;9.93;7.72;;;13.70;99.90;;;;;;5028028;28;20208;-96
2023/08/31 01:29:02;;;;;;;10.07;6.82;;;13.70;99.90;;;;;;5026227;28;20633;-96
2023/08/31 01:31:29;;;;;;;10.82;7.75;;;13.70;99.90;;;;;;5026206;28;20173;-96
2023/08/31 01:33:55;;;;;;;9.68;7.28;;;13.70;99.90;;;;;;5025751;28;20182;-96
2023/08/31 01:36:30;;;;;;;10.98;7.30;;;13.70;99.90;;;;;;5025769;28;20198;-96
2023/08/31 01:39:24;;;;;;;9.98;7.20;;;13.60;99.90;;;;;;5025841;28;20178;-96
2023/08/31 01:42:02;;;;;;;10.23;7.20;;;13.60;99.90;;;;;;5026458;28;20209;-96
2023/08/31 01:44:37;;;;;;;10.02;7.30;;;13.50;99.90;;;;;;5025971;28;20199;-96
2023/08/31 01:47:05;;;;;;;10.25;7.55;;;13.60;99.90;;;;;;5025517;28;20193;-96
2023/08/31 01:49:51;;;;;;;10.48;8.23;;;13.50;99.90;;;;;;5025191;28;20178;-96
2023/08/31 01:52:16;;;;;;;10.70;7.32;;;13.50;99.90;;;;;;5025726;28;20162;-96
2023/08/31 01:54:48;;;;;;;11.82;7.85;;;13.50;99.90;;;;;;5026176;28;20167;-96
2023/08/31 01:57:14;;;;;;;8.85;7.43;;;13.50;99.90;;;;;;5386598;23;20560;-95
2023/08/31 01:59:39;;;;;;;11.45;7.57;;;13.50;99.90;;;;;;5034251;28;20181;-94
2023/08/31 02:02:05;;;;;;;11.02;7.40;;;13.50;99.90;;;;;;5034313;28;20175;-93
2023/08/31 02:04:31;;;;;;;9.93;7.68;;;13.40;99.90;;;;;;5034043;28;20581;-94
2023/08/31 02:06:57;;;;;;;10.27;6.78;;;13.40;99.90;;;;;;5033852;28;20265;-95
2023/08/31 02:09:28;;;;;;;11.88;7.63;;;13.40;99.90;;;;;;5033950;28;20210;-96
2023/08/31 02:11:53;;;;;;;18.63;7.75;;;13.40;99.90;;;;;;5035120;28;20167;-96
2023/08/31 02:14:19;;;;;;;10.65;7.47;;;13.40;99.90;;;;;;5034517;28;20221;-94
2023/08/31 02:16:45;;;;;;;10.05;6.88;;;13.40;99.90;;;;;;5034004;28;20289;-94
2023/08/31 02:19:11;;;;;;;11.57;7.68;;;13.30;99.90;;;;;;5033677;28;20179;-96
2023/08/31 02:21:36;;;;;;;10.52;6.82;;;13.30;99.90;;;;;;5034391;28;20186;-96
2023/08/31 02:24:03;;;;;;;11.32;7.20;;;13.20;99.90;;;;;;5033682;28;20222;-95
2023/08/31 02:26:29;;;;;;;14.18;7.43;;;13.30;99.90;;;;;;5034038;28;20183;-95
2023/08/31 02:29:03;;;;;;;10.25;7.13;;;13.30;99.90;;;;;;5033957;28;20356;-94
2023/08/31 02:31:28;;;;;;;12.68;7.28;;;13.30;99.90;;;;;;5033714;28;20173;-95
2023/08/31 02:33:54;;;;;;;12.88;7.85;;;13.20;99.90;;;;;;5033639;28;20186;-88
2023/08/31 02:36:22;;;;;;;14.05;8.00;;;13.20;99.90;;;;;;5033769;28;20171;-95
2023/08/31 02:38:50;;;;;;;10.40;7.63;;;13.20;99.90;;;;;;5033637;28;20708;-92
2023/08/31 02:41:17;;;;;;;10.93;7.38;;;13.10;99.90;;;;;;5033732;28;20610;-96
2023/08/31 02:43:43;;;;;;;10.77;7.30;;;13.10;99.90;;;;;;5033332;28;20210;-94
2023/08/31 02:46:08;;;;;;;8.93;7.57;;;13.10;99.90;;;;;;5033689;28;20201;-96
2023/08/31 02:48:40;;;;;;;11.18;7.57;;;13.10;99.90;;;;;;5033796;28;20661;-95
2023/08/31 02:51:06;;;;;;;11.63;7.97;;;13.10;99.90;;;;;;5033694;28;20202;-96
2023/08/31 02:53:31;;;;;;;12.43;7.53;;;13.10;99.90;;;;;;5033661;28;20175;-91
2023/08/31 02:55:57;;;;;;;15.68;7.68;;;13.00;99.90;;;;;;5033392;28;20187;-95
2023/08/31 02:58:24;;;;;;;11.32;8.30;;;13.00;99.90;;;;;;5063755;28;20336;-95
2023/08/31 03:00:53;;;;;;;9.98;7.80;;;13.00;99.90;;;;;;5057018;28;20231;-96
2023/08/31 03:03:19;;;;;;;12.18;8.82;;;13.00;99.90;;;;;;5060360;28;20250;-93
2023/08/31 03:05:45;;;;;;;12.20;8.90;;;13.00;99.90;;;;;;5060738;28;20185;-95
2023/08/31 03:08:11;;;;;;;13.35;8.20;;;13.00;99.90;;;;;;5060054;28;20177;-93
2023/08/31 03:10:38;;;;;;;11.32;8.98;;;12.90;99.90;;;;;;5060364;28;20181;-94
2023/08/31 03:13:04;;;;;;;13.48;8.88;;;12.90;99.90;;;;;;5060459;28;20218;-92
2023/08/31 03:15:32;;;;;;;11.40;8.55;;;12.90;99.90;;;;;;5060249;28;20180;-93
2023/08/31 03:17:57;;;;;;;12.82;8.77;;;12.90;99.90;;;;;;5060230;28;20173;-93
2023/08/31 03:20:28;;;;;;;12.55;9.55;;;12.80;99.90;;;;;;5060280;28;20519;-94
2023/08/31 03:22:54;;;;;;;12.35;8.15;;;12.80;99.90;;;;;;5060415;28;20184;-90
2023/08/31 03:25:19;;;;;;;15.65;9.00;;;12.80;99.90;;;;;;5060085;28;20178;-93
2023/08/31 03:27:45;;;;;;;14.35;8.57;;;12.80;99.90;;;;;;5059974;28;20201;-93
2023/08/31 03:30:18;;;;;;;10.40;8.65;;;12.90;99.90;;;;;;5059891;28;20207;-92
2023/08/31 03:32:44;;;;;;;11.20;8.18;;;12.80;99.90;;;;;;5059988;28;20545;-93
2023/08/31 03:35:09;;;;;;;13.40;9.18;;;12.90;99.90;;;;;;5060201;28;20185;-93
2023/08/31 03:37:35;;;;;;;10.68;8.73;;;12.80;99.90;;;;;;5059978;28;20634;-94
2023/08/31 03:40:01;;;;;;;11.95;8.63;;;12.90;99.90;;;;;;5059822;28;20703;-94
2023/08/31 03:42:26;;;;;;;14.75;9.25;;;12.90;99.90;;;;;;5060089;28;20165;-93
2023/08/31 03:44:52;;;;;;;12.70;8.70;;;12.80;99.90;;;;;;5059800;28;20209;-94
2023/08/31 03:47:18;;;;;;;14.75;8.63;;;12.70;99.90;;;;;;5059702;28;20607;-91
2023/08/31 03:49:45;;;;;;;11.25;8.65;;;12.80;99.90;;;;;;5059670;28;20203;-93
2023/08/31 03:52:10;;;;;;;14.75;8.70;;;12.80;99.90;;;;;;5060062;28;20230;-93
2023/08/31 03:54:36;;;;;;;12.85;9.40;;;12.70;99.90;;;;;;5059708;28;20267;-94
2023/08/31 03:57:02;;;;;;;14.50;9.88;;;12.70;99.90;;;;;;5057195;28;20213;-91
2023/08/31 03:59:41;;;;;;;12.68;8.85;;;12.70;99.90;;;;;;5056159;28;20178;-95
2023/08/31 04:02:07;;;;;;;11.25;8.35;;;12.80;99.90;;;;;;5056566;28;20227;-94
2023/08/31 04:04:33;;;;;;;13.48;8.80;;;12.70;99.90;;;;;;5056147;28;20252;-92
2023/08/31 04:07:00;;;;;;;12.05;8.60;;;12.70;99.90;;;;;;5055975;28;20667;-93
2023/08/31 04:09:26;;;;;;;11.63;9.15;;;12.80;99.90;;;;;;5055801;28;20181;-96
2023/08/31 04:11:51;;;;;;;16.20;9.40;;;12.70;99.90;;;;;;5057293;28;20162;-94
2023/08/31 04:14:18;;;;;;;13.60;8.60;;;12.70;99.90;;;;;;5055307;28;20174;-92
2023/08/31 04:16:45;;;;;;;13.32;8.77;;;12.70;99.90;;;;;;5056964;28;20174;-95
2023/08/31 04:19:10;;;;;;;12.90;9.27;;;12.70;99.90;;;;;;5055802;28;20178;-94
2023/08/31 04:21:37;;;;;;;17.30;9.27;;;12.60;99.90;;;;;;5056156;28;20261;-94
2023/08/31 04:24:03;;;;;;;15.57;9.60;;;12.60;99.90;;;;;;5056155;28;20517;-95
2023/08/31 04:26:29;;;;;;;15.68;8.63;;;12.60;99.90;;;;;;5056166;28;20170;-96
2023/08/31 04:28:56;;;;;;;15.07;9.05;;;12.60;99.90;;;;;;5059640;28;20275;-90
2023/08/31 04:31:22;;;;;;;13.07;8.82;;;12.60;99.90;;;;;;5059082;28;20184;-93
2023/08/31 04:33:48;;;;;;;12.07;8.55;;;12.60;99.90;;;;;;5059260;28;20177;-94
2023/08/31 04:36:14;;;;;;;11.57;8.70;;;12.60;99.90;;;;;;5058969;28;20181;-92
2023/08/31 04:38:39;;;;;;;15.23;9.60;;;12.60;99.90;;;;;;5076849;28;20179;-95
2023/08/31 04:41:06;;;;;;;13.20;9.13;;;12.60;99.90;;;;;;5059310;28;20679;-95
2023/08/31 04:43:32;;;;;;;12.23;8.82;;;12.60;99.90;;;;;;5059161;28;20304;-92
2023/08/31 04:45:58;;;;;;;16.17;9.35;;;12.60;99.90;;;;;;5059107;28;20315;-96
2023/08/31 04:48:23;;;;;;;12.48;8.23;;;12.60;99.90;;;;;;5059327;28;20173;-91
2023/08/31 04:50:59;;;;;;;18.48;9.60;;;12.60;99.90;;;;;;5059175;28;20233;-93
2023/08/31 04:53:26;;;;;;;15.50;8.82;;;12.70;99.90;;;;;;5059027;28;20214;-96
2023/08/31 04:55:53;;;;;;;11.70;8.60;;;12.60;99.90;;;;;;5058957;28;20179;-94
2023/08/31 04:58:18;;;;;;;11.57;8.10;;;12.70;99.90;;;;;;5058584;28;20564;-94
2023/08/31 05:00:53;;;;;;;13.60;8.57;;;12.70;99.90;;;;;;5058740;28;20576;-94
2023/08/31 05:03:19;;;;;;;15.60;8.60;;;12.70;99.90;;;;;;5058653;28;20214;-91
2023/08/31 05:05:44;;;;;;;10.35;7.93;;;12.70;99.90;;;;;;5058347;28;20619;-94
2023/08/31 05:08:10;;;;;;;11.68;8.25;;;12.70;99.90;;;;;;5058530;28;20208;-90
2023/08/31 05:10:42;;;;;;;13.95;8.88;;;12.70;99.90;;;;;;5074838;28;20608;-91
2023/08/31 05:13:08;;;;;;;12.23;8.45;;;12.70;99.90;;;;;;5058591;28;20177;-94
2023/08/31 05:15:34;;;;;;;13.88;9.23;;;12.80;99.90;;;;;;5059508;28;20177;-92
2023/08/31 05:18:00;;;;;;;12.35;7.72;;;12.80;99.90;;;;;;5058715;28;20681;-94
2023/08/31 05:20:27;;;;;;;15.93;8.52;;;12.80;99.90;;;;;;5059363;28;20181;-95
2023/08/31 05:22:52;;;;;;;9.65;7.30;;;12.70;99.90;;;;;;5058572;28;20174;-91
2023/08/31 05:25:18;;;;;;;13.98;8.13;;;12.80;99.90;;;;;;5053177;28;20193;-92
2023/08/31 05:27:44;;;;;;;13.10;7.97;;;12.80;99.90;;;;;;5058365;28;20647;-95
2023/08/31 05:30:12;;;;;;;11.95;7.88;;;12.70;99.90;;;;;;5056739;28;20197;-95
2023/08/31 05:32:37;;;;;;;12.40;8.40;;;12.80;99.90;;;;;;5055145;28;20179;-92
2023/08/31 05:35:03;;;;;;;13.40;8.02;;;12.70;99.90;;;;;;5054932;28;20174;-91
2023/08/31 05:37:33;;;;;;;9.18;7.50;;;12.80;99.90;;;;;;5056058;28;20174;-91
2023/08/31 05:40:10;;;;;;;15.77;7.68;;;12.80;99.90;;;;;;5054770;28;20199;-93
2023/08/31 05:42:36;;;;;;;10.43;7.72;;;12.80;99.90;;;;;;5054675;28;20201;-95
2023/08/31 05:45:02;;;;;;;10.32;7.72;;;12.90;99.90;;;;;;5055076;28;20233;-94
2023/08/31 05:47:28;;;;;;;15.02;8.32;;;13.00;99.90;;;;;;5054541;28;20612;-91
2023/08/31 05:49:54;;;;;;;9.68;7.55;;;13.00;99.90;;;;;;5056594;28;20178;-94
2023/08/31 05:52:20;;;;;;;16.58;7.82;;;13.10;99.90;;;;;;5056246;28;20243;-93
2023/08/31 05:54:46;;;;;;;9.80;7.28;;;13.20;99.90;;;;;;5056404;28;20177;-93
2023/08/31 05:57:19;;;;;;;10.23;7.00;;;13.30;99.90;;;;;;5049233;28;20277;-94
2023/08/31 05:59:45;;;;;;;9.27;6.03;;;13.40;99.90;;;;;;5034351;28;20229;-93
2023/08/31 06:02:14;;;;;;;13.20;6.63;;;13.50;99.90;;;;;;5034144;28;20213;-92
2023/08/31 06:04:40;;;;;;;13.73;6.30;;;13.50;99.90;;;;;;5033100;28;20218;-91
2023/08/31 06:07:05;;;;;;;9.98;6.38;;;13.60;99.90;;;;;;5033919;28;20235;-90
2023/08/31 06:09:31;;;;;;;10.02;5.93;;;13.80;99.90;;;;;;5017421;28;20613;-89
2023/08/31 06:11:57;;;;;;;11.52;6.25;;;13.90;99.90;;;;;;5033799;28;20608;-90
2023/08/31 06:14:22;;;;;;;9.55;7.05;;;14.00;99.90;;;;;;5033882;28;20243;-90
2023/08/31 06:16:48;;;;;;;11.75;8.18;;;14.00;99.90;;;;;;5033873;28;20248;-89
2023/08/31 06:19:16;;;;;;;13.45;7.78;;;14.00;99.90;;;;;;5033567;28;20178;-90
2023/08/31 06:21:43;;;;;;;15.63;8.57;;;14.10;99.90;;;;;;5017068;28;20336;-91
2023/08/31 06:24:12;;;;;;;16.70;8.75;;;14.20;99.90;;;;;;5033646;28;20210;-93
2023/08/31 06:26:38;;;;;;;13.07;9.68;;;14.20;99.90;;;;;;5016937;28;20179;-90
2023/08/31 06:29:04;;;;;;;11.50;9.60;;;14.30;99.90;;;;;;5017185;28;20237;-90
2023/08/31 06:31:32;;;;;;;14.48;9.57;;;14.40;99.90;;;;;;5034688;28;20175;-92
2023/08/31 06:33:57;;;;;;;17.05;9.45;;;14.40;99.90;;;;;;5033909;28;20229;-89
2023/08/31 06:36:23;;;;;;;13.88;9.50;;;14.30;99.90;;;;;;5034743;28;20205;-89
2023/08/31 06:38:49;;;;;;;12.98;9.45;;;14.20;99.90;;;;;;5037904;28;20249;-90
2023/08/31 06:41:18;;;;;;;13.32;10.05;;;14.10;99.90;;;;;;5037076;28;20265;-90
2023/08/31 06:43:45;;;;;;;15.07;10.18;;;14.10;99.90;;;;;;5020785;28;20273;-88
2023/08/31 06:46:11;;;;;;;13.70;9.90;;;14.30;99.90;;;;;;5020623;28;20250;-88
2023/08/31 06:48:37;;;;;;;15.07;10.85;;;14.40;99.90;;;;;;5020771;28;20550;-91
2023/08/31 06:51:03;;;;;;;15.27;9.75;;;14.50;99.90;;;;;;5036766;28;20205;-86
2023/08/31 06:53:31;;;;;;;15.02;10.55;;;14.40;99.90;;;;;;5020288;28;20171;-87
2023/08/31 06:55:58;;;;;;;14.25;10.85;;;14.40;99.90;;;;;;5019575;28;20607;-88
2023/08/31 06:58:23;;;;;;;13.43;10.23;;;14.50;99.90;;;;;;5031145;28;20234;-87
2023/08/31 07:00:51;;;;;;;16.58;10.43;;;14.50;99.90;;;;;;5031881;28;21016;-87
2023/08/31 07:03:19;;;;;;;12.13;10.00;;;14.50;99.90;;;;;;5018656;28;20252;-86
2023/08/31 07:05:45;;;;;;;11.98;10.60;;;14.60;99.90;;;;;;5038170;28;20171;-90
2023/08/31 07:08:11;;;;;;;12.35;9.63;;;14.60;99.90;;;;;;5037330;28;20277;-87
2023/08/31 07:10:36;;;;;;;14.82;9.80;;;14.70;99.90;;;;;;5036449;28;20163;-87
2023/08/31 07:13:03;;;;;;;13.45;10.13;;;14.80;99.90;;;;;;5019703;28;20225;-87
2023/08/31 07:15:29;;;;;;;11.60;9.68;;;14.80;99.90;;;;;;5018834;28;20615;-88
2023/08/31 07:17:55;;;;;;;13.05;9.48;;;14.90;99.90;;;;;;5018971;28;20244;-87
2023/08/31 07:20:21;;;;;;;14.65;9.63;;;14.90;99.90;;;;;;5019094;28;20178;-87
2023/08/31 07:22:46;;;;;;;12.15;9.88;;;14.90;99.90;;;;;;5018794;28;20633;-87
2023/08/31 07:25:12;;;;;;;14.18;10.45;;;14.80;99.90;;;;;;5035739;28;20221;-86
2023/08/31 07:27:38;;;;;;;11.32;10.23;;;14.90;99.90;;;;;;5022228;28;20194;-87
2023/08/31 07:30:05;;;;;;;17.08;10.52;;;15.00;99.90;;;;;;5037372;28;20175;-88
2023/08/31 07:32:33;;;;;;;13.43;9.77;;;14.90;99.90;;;;;;5035198;28;20171;-86
2023/08/31 07:34:59;;;;;;;14.55;11.55;;;14.90;99.90;;;;;;5037179;28;20245;-87
2023/08/31 07:37:24;;;;;;;14.98;10.90;;;15.00;99.90;;;;;;5036024;28;20262;-86
2023/08/31 07:39:50;;;;;;;15.63;10.23;;;15.10;99.90;;;;;;5036962;28;20580;-90
2023/08/31 07:42:16;;;;;;;13.13;9.20;;;15.10;99.90;;;;;;5036040;28;20704;-89
2023/08/31 07:44:44;;;;;;;10.40;9.15;;;15.00;99.90;;;;;;5035731;28;20297;-86
2023/08/31 07:47:09;;;;;;;10.70;9.60;;;15.00;99.90;;;;;;5036456;28;20587;-86
2023/08/31 07:49:35;;;;;;;13.07;9.57;;;15.00;99.90;;;;;;5036652;28;20562;-89
2023/08/31 07:52:02;;;;;;;13.35;9.18;;;15.20;99.90;;;;;;5036727;28;20257;-87
2023/08/31 07:54:28;;;;;;;10.70;9.60;;;15.20;99.90;;;;;;5035339;28;20549;-88
2023/08/31 07:56:54;;;;;;;12.15;9.68;;;15.40;99.90;;;;;;5040807;28;20174;-86
2023/08/31 07:59:19;;;;;;;10.73;9.63;;;15.50;99.90;;;;;;5076623;28;20249;-87
2023/08/31 08:01:46;;;;;;;12.75;8.70;;;15.50;99.90;;;;;;5058468;28;20204;-86
2023/08/31 08:04:14;;;;;;;11.88;8.55;;;15.50;99.90;;;;;;5058554;28;20209;-87
2023/08/31 08:06:40;;;;;;;11.02;9.45;;;15.60;99.90;;;;;;5058557;28;20251;-87
2023/08/31 08:09:06;;;;;;;12.77;8.55;;;15.50;99.90;;;;;;5076330;28;20219;-86
2023/08/31 08:11:34;;;;;;;10.07;8.32;;;15.50;99.90;;;;;;5058050;28;20672;-87
2023/08/31 08:14:00;;;;;;;11.20;8.25;;;15.50;99.90;;;;;;5076231;28;20193;-85
2023/08/31 08:16:26;;;;;;;12.30;7.68;;;15.40;99.90;;;;;;5076228;28;20173;-86
2023/08/31 08:18:51;;;;;;;11.52;7.53;;;15.40;99.90;;;;;;5075203;28;20482;-88
2023/08/31 08:21:17;;;;;;;8.40;7.00;;;15.50;99.90;;;;;;5074910;28;20173;-88
2023/08/31 08:23:42;;;;;;;8.90;6.63;;;15.40;99.90;;;;;;5058212;28;20201;-87
2023/08/31 08:26:08;;;;;;;11.38;7.13;;;15.40;99.90;;;;;;5074709;28;20231;-86
2023/08/31 08:28:34;;;;;;;11.90;7.22;;;15.40;99.90;;;;;;5074673;28;20181;-89
2023/08/31 08:31:05;;;;;;;9.07;6.70;;;15.50;99.90;;;;;;5075715;28;20178;-86
2023/08/31 08:33:31;;;;;;;7.25;6.45;;;15.50;99.90;;;;;;5058038;28;20596;-87
2023/08/31 08:35:57;;;;;;;8.77;5.45;;;15.50;99.90;;;;;;5075731;28;20223;-85
2023/08/31 08:38:23;;;;;;;6.65;5.13;;;15.50;99.90;;;;;;5074604;28;20173;-85
2023/08/31 08:40:50;;;;;;;6.38;5.10;;;15.50;99.90;;;;;;5075402;28;20242;-86
2023/08/31 08:43:23;;;;;;;5.15;4.28;;;15.40;99.90;;;;;;5057658;28;20198;-86
2023/08/31 08:45:50;;;;;;;6.22;4.45;;;15.50;99.90;;;;;;5075760;28;20196;-87
2023/08/31 08:48:17;;;;;;;6.70;4.10;;;15.50;99.90;;;;;;5057709;28;20515;-86
2023/08/31 08:50:43;;;;;;;7.57;4.20;;;15.60;99.90;;;;;;5057603;28;20562;-86
2023/08/31 08:53:10;;;;;;;6.32;4.32;;;15.60;99.90;;;;;;5075610;28;20199;-88
2023/08/31 08:55:36;;;;;;;7.22;3.58;;;15.70;99.90;;;;;;5057936;28;20268;-88
2023/08/31 08:58:03;;;;;;;5.90;3.67;;;15.70;99.90;;;;;;5042624;28;20313;-91
2023/08/31 09:00:30;;;;;;;6.07;4.68;;;15.70;99.90;;;;;;5017197;28;20175;-88
2023/08/31 09:02:58;;;;;;;6.85;4.22;;;15.80;99.90;;;;;;5035536;28;20181;-87
2023/08/31 09:05:24;;;;;;;5.10;3.78;;;16.10;99.90;;;;;;5017872;28;20227;-85
2023/08/31 09:08:11;;;;;;;5.32;3.60;;;16.20;99.90;;;;;;5017122;28;20208;-88
2023/08/31 09:10:44;;;;;;;6.75;3.85;;;16.50;99.90;;;;;;5017200;28;20170;-89
2023/08/31 09:13:19;;;;;;;4.32;2.70;;;16.80;99.90;;;;;;5035379;28;20163;-87
2023/08/31 09:15:47;;;;;;;3.22;2.75;;;16.80;99.90;;;;;;5034919;28;20253;-87
2023/08/31 09:18:26;;;;;;;5.13;3.00;;;16.70;99.90;;;;;;5035415;28;20309;-91
2023/08/31 09:20:56;;;;;;;5.00;3.10;;;16.50;99.90;;;;;;5034524;28;20520;-88
2023/08/31 09:23:22;;;;;;;4.03;3.03;;;16.50;99.90;;;;;;5018097;28;20199;-89
2023/08/31 09:25:53;;;;;;;5.38;3.00;;;16.40;99.90;;;;;;5035569;28;20640;-91
2023/08/31 09:28:26;;;;;;;3.15;2.80;;;16.30;99.90;;;;;;5022894;28;20265;-92
2023/08/31 09:30:53;;;;;;;5.13;2.92;;;16.40;99.90;;;;;;5014897;28;20175;-95
2023/08/31 09:33:20;;;;;;;6.80;3.22;;;16.30;99.90;;;;;;5014515;28;20246;-89
2023/08/31 09:35:51;;;;;;;3.75;2.60;;;16.10;99.90;;;;;;5014754;28;20617;-89
2023/08/31 09:38:17;;;;;;;4.30;3.00;;;16.20;99.90;;;;;;5014508;28;20193;-89
2023/08/31 09:40:43;;;;;;;6.18;2.90;;;16.00;99.90;;;;;;5015248;28;20172;-88
2023/08/31 09:43:09;;;;;;;4.63;2.60;;;15.90;99.90;;;;;;5013872;28;20187;-87
2023/08/31 09:45:36;;;;;;;6.30;2.50;;;15.80;99.90;;;;;;5013873;28;20179;-86
2023/08/31 09:48:03;;;;;;;4.90;3.10;;;15.80;99.90;;;;;;5015482;28;20172;-87
2023/08/31 09:50:33;;;;;;;5.43;2.40;;;15.90;99.90;;;;;;5015272;28;20569;-88
2023/08/31 09:53:06;;;;;;;5.45;2.35;;;15.90;99.90;;;;;;5014145;28;20186;-89
2023/08/31 09:55:32;;;;;;;5.65;1.90;;;16.00;99.90;;;;;;5013624;28;20179;-87
2023/08/31 09:58:02;;;;;;;3.53;2.17;;;15.90;99.90;;;;;;5024634;28;20243;-88
2023/08/31 10:00:30;;;;;;;3.55;2.22;;;15.80;99.90;;;;;;5033514;28;20635;-88
2023/08/31 10:03:00;;;;;;;4.55;2.10;;;15.70;99.90;;;;;;5033569;28;20187;-88
2023/08/31 10:05:26;;;;;;;4.32;2.25;;;15.80;99.90;;;;;;5035245;28;20166;-90
2023/08/31 10:07:52;;;;;;;3.35;2.10;;;16.00;99.90;;;;;;5033612;28;20292;-88
2023/08/31 10:10:18;;;;;;;3.50;2.08;;;16.10;99.90;;;;;;5033093;28;20617;-89
2023/08/31 10:12:49;;;;;;;3.25;1.83;;;16.30;99.90;;;;;;5033430;28;20174;-90
2023/08/31 10:15:16;;;;;;;3.95;1.80;;;16.60;99.90;;;;;;5033410;28;20240;-88
2023/08/31 10:17:42;;;;;;;3.28;1.60;;;16.60;99.90;;;;;;5033513;28;20254;-87
2023/08/31 10:20:10;;;;;;;4.22;1.92;;;16.60;99.90;;;;;;5034624;28;20174;-88
2023/08/31 10:22:37;;;;;;;3.20;1.42;;;16.60;99.90;;;;;;5031854;28;20189;-91
2023/08/31 10:25:05;;;;;;;3.35;1.63;;;16.60;99.90;;;;;;5033091;28;20214;-91
2023/08/31 10:27:47;;;;;;;3.03;1.50;;;16.80;99.90;;;;;;5033249;28;20209;-86
2023/08/31 10:30:27;;;;;;;3.40;1.60;;;17.10;99.90;;;;;;5033316;28;20186;-88
2023/08/31 10:33:08;;;;;;;4.55;1.80;;;17.20;99.90;;;;;;5032862;28;20644;-89
2023/08/31 10:35:48;;;;;;;4.57;1.77;;;17.00;99.90;;;;;;5034333;28;20173;-87
2023/08/31 10:38:30;;;;;;;4.00;1.70;;;16.70;99.90;;;;;;5033385;28;20261;-87
2023/08/31 10:41:05;;;;;;;6.38;1.80;;;16.50;99.90;;;;;;5034428;28;20508;-87
2023/08/31 10:43:59;;;;;;;8.30;2.00;;;16.50;99.90;;;;;;5033097;28;20274;-85
2023/08/31 10:46:35;;;;;;;5.38;1.70;;;16.60;99.90;;;;;;5033045;28;20178;-88
2023/08/31 10:49:22;;;;;;;2.50;1.60;;;16.80;99.90;;;;;;5033057;28;20174;-87
2023/08/31 10:51:57;;;;;;;6.22;1.55;;;16.90;99.90;;;;;;5032553;28;20647;-90
2023/08/31 10:54:31;;;;;;;4.30;1.70;;;17.10;99.90;;;;;;5033550;28;20171;-91
2023/08/31 10:57:00;;;;;;;3.10;1.55;;;17.20;99.90;;;;;;5038488;28;20170;-90
2023/08/31 10:59:40;;;;;;;4.93;1.77;;;17.20;99.90;;;;;;5056181;28;20268;-91
2023/08/31 11:02:07;;;;;;;5.50;1.60;;;17.50;99.90;;;;;;5056623;28;20185;-88
2023/08/31 11:04:53;;;;;;;3.70;1.75;;;17.70;99.90;;;;;;5056886;28;20248;-90
2023/08/31 11:07:23;;;;;;;7.50;1.90;;;17.90;99.90;;;;;;5056332;28;20169;-88
2023/08/31 11:09:49;;;;;;;4.28;1.50;;;18.00;99.90;;;;;;5074166;28;20314;-87
2023/08/31 11:12:21;;;;;;;3.97;1.40;;;18.30;99.90;;;;;;5056340;28;20235;-86
2023/08/31 11:14:48;;;;;;;3.13;1.23;;;18.50;99.90;;;;;;5056364;28;20226;-90
2023/08/31 11:17:13;;;;;;;4.55;1.45;;;18.50;99.90;;;;;;5056118;28;20629;-89
2023/08/31 11:19:39;;;;;;;5.20;2.10;;;18.60;99.90;;;;;;5056381;28;20177;-85
2023/08/31 11:22:06;;;;;;;4.20;1.70;;;18.50;99.90;;;;;;5056367;28;20204;-84
2023/08/31 11:24:33;;;;;;;7.10;1.90;;;18.50;99.90;;;;;;5059417;28;20654;-84
2023/08/31 11:26:59;;;;;;;4.65;1.70;;;18.40;99.90;;;;;;5075384;28;20188;-90
2023/08/31 11:29:25;;;;;;;1.67;1.50;;;18.40;99.90;;;;;;5057526;28;20174;-87
2023/08/31 11:31:51;;;;;;;4.22;1.80;;;18.50;99.90;;;;;;5039897;28;20505;-87
2023/08/31 11:34:17;;;;;;;3.10;1.60;;;18.50;99.90;;;;;;5057559;28;20220;-87
2023/08/31 11:36:45;;;;;;;4.88;1.70;;;18.60;99.90;;;;;;5057172;28;20174;-86
2023/08/31 11:39:12;;;;;;;2.83;1.55;;;18.60;99.90;;;;;;5039630;28;20526;-88
2023/08/31 11:41:41;;;;;;;3.00;1.80;;;18.60;99.90;;;;;;5039474;28;20670;-89
2023/08/31 11:44:13;;;;;;;3.47;1.60;;;18.50;99.90;;;;;;5057444;28;20697;-87
2023/08/31 11:46:41;;;;;;;4.88;2.15;;;18.50;99.90;;;;;;5057764;28;20194;-88
2023/08/31 11:49:07;;;;;;;3.55;1.40;;;18.70;99.90;;;;;;5039749;28;20173;-88
2023/08/31 11:51:34;;;;;;;5.22;1.60;;;18.70;99.90;;;;;;5056708;28;20256;-89
2023/08/31 11:54:04;;;;;;;3.83;2.05;;;18.70;99.90;;;;;;5056310;28;20158;-88
2023/08/31 11:56:52;;;;;;;2.78;1.85;;;18.90;99.90;;;;;;5038684;28;20292;-86
2023/08/31 11:59:19;;;;;;;2.83;1.83;;;18.90;99.90;;;;;;5038294;28;20524;-89
2023/08/31 12:01:50;;;;;;;4.57;1.95;;;19.00;99.90;;;;;;5056111;28;20174;-90
2023/08/31 12:04:20;;;;;;;4.10;2.05;;;19.00;99.90;;;;;;5038326;28;20214;-92
2023/08/31 12:07:04;;;;;;;4.18;2.38;;;19.00;99.90;;;;;;5038637;28;20178;-89
2023/08/31 12:09:30;;;;;;;3.22;2.00;;;19.10;99.90;;;;;;5056556;28;20291;-86
2023/08/31 12:11:56;;;;;;;6.80;2.40;;;19.30;99.90;;;;;;5056671;28;20189;-91
2023/08/31 12:14:27;;;;;;;4.07;2.05;;;19.50;99.90;;;;;;5040860;28;20170;-92
2023/08/31 12:17:03;;;;;;;2.60;1.98;;;19.60;99.90;;;;;;5039257;28;20176;-92
2023/08/31 12:19:30;;;;;;;5.25;1.98;;;19.70;99.90;;;;;;5058536;28;20196;-91
2023/08/31 12:21:56;;;;;;;7.60;2.17;;;19.80;99.90;;;;;;5040443;28;20188;-94
2023/08/31 12:24:23;;;;;;;4.88;2.33;;;19.80;99.90;;;;;;5040588;28;20206;-94
2023/08/31 12:26:50;;;;;;;3.28;2.05;;;19.70;99.90;;;;;;5059118;28;20199;-89
2023/08/31 12:29:16;;;;;;;2.88;1.77;;;19.70;99.90;;;;;;5077102;28;20619;-91
2023/08/31 12:31:43;;;;;;;5.22;2.03;;;19.80;99.90;;;;;;5076089;28;20177;-92
2023/08/31 12:34:09;;;;;;;2.40;1.80;;;19.90;99.90;;;;;;5057676;28;20215;-95
2023/08/31 12:36:41;;;;;;;4.00;1.70;;;19.80;99.90;;;;;;5058374;28;20185;-91
2023/08/31 12:39:09;;;;;;;2.92;1.65;;;19.70;99.90;;;;;;5058641;28;20189;-90
2023/08/31 12:41:35;;;;;;;2.45;1.52;;;19.60;99.90;;;;;;5058284;28;20184;-92
2023/08/31 12:44:03;;;;;;;4.63;2.00;;;19.60;99.90;;;;;;5058708;28;20212;-93
2023/08/31 12:46:29;;;;;;;12.00;2.30;;;19.50;99.90;;;;;;5076287;28;20238;-91